createdAt,value
2018-03-20T00:00:08.916Z,7.33
2018-03-20T00:02:37.188Z,8.37
2018-03-20T00:05:05.490Z,7.83
2018-03-20T00:07:33.855Z,7.27
2018-03-20T00:10:02.121Z,6.27
2018-03-20T00:12:31.909Z,8.47
2018-03-20T00:15:00.933Z,7.13
2018-03-20T00:17:29.283Z,6.33
2018-03-20T00:19:57.600Z,7.47
2018-03-20T00:22:26.001Z,7.50
2018-03-20T00:24:54.318Z,8.23
2018-03-20T00:27:23.370Z,7.83
2018-03-20T00:29:51.630Z,7.50
2018-03-20T00:32:19.896Z,7.57
2018-03-20T00:34:48.933Z,7.37
2018-03-20T00:37:17.239Z,8.60
2018-03-20T00:39:45.510Z,7.33
2018-03-20T00:42:13.794Z,8.27
2018-03-20T00:44:42.052Z,7.40
2018-03-20T00:47:10.338Z,7.50
2018-03-20T00:49:38.612Z,7.60
2018-03-20T00:52:07.000Z,6.87
2018-03-20T00:54:35.272Z,6.93
2018-03-20T00:57:03.558Z,8.33
2018-03-20T00:59:31.824Z,7.30
2018-03-20T01:02:00.152Z,6.70
2018-03-20T01:04:28.547Z,7.87
2018-03-20T01:06:57.049Z,8.23
2018-03-20T01:09:26.291Z,7.40
2018-03-20T01:11:54.744Z,9.00
2018-03-20T01:14:23.840Z,8.00
2018-03-20T01:16:52.124Z,8.13
2018-03-20T01:19:20.380Z,9.30
2018-03-20T01:21:49.438Z,7.33
2018-03-20T01:24:17.764Z,7.50
2018-03-20T01:26:46.793Z,7.03
2018-03-20T01:29:15.837Z,6.50
2018-03-20T01:31:44.207Z,7.40
2018-03-20T01:34:12.513Z,6.73
2018-03-20T01:36:40.782Z,7.03
2018-03-20T01:39:09.052Z,8.27
2018-03-20T01:41:38.078Z,7.23
2018-03-20T01:44:06.364Z,8.73
2018-03-20T01:46:35.385Z,7.60
2018-03-20T01:49:03.672Z,7.87
2018-03-20T01:51:31.932Z,7.13
2018-03-20T01:54:01.056Z,7.73
2018-03-20T01:56:29.415Z,7.17
2018-03-20T01:58:57.703Z,6.80
2018-03-20T02:01:26.066Z,6.90
2018-03-20T02:03:54.372Z,6.60
2018-03-20T02:06:23.603Z,6.93
2018-03-20T02:08:52.020Z,6.40
2018-03-20T02:11:20.284Z,8.40
2018-03-20T02:13:49.333Z,7.30
2018-03-20T02:16:17.610Z,7.13
2018-03-20T02:18:46.645Z,8.57
2018-03-20T02:21:14.925Z,6.93
2018-03-20T02:23:43.218Z,6.57
2018-03-20T02:26:11.485Z,6.83
2018-03-20T02:28:39.768Z,5.60
2018-03-20T02:31:08.026Z,6.97
2018-03-20T02:33:36.313Z,6.93
2018-03-20T02:36:04.570Z,6.13
2018-03-20T02:38:33.616Z,6.43
2018-03-20T02:41:02.658Z,6.37
2018-03-20T02:43:30.937Z,6.37
2018-03-20T02:45:59.984Z,6.23
2018-03-20T02:48:28.373Z,5.57
2018-03-20T02:50:56.768Z,7.67
2018-03-20T02:53:26.666Z,5.97
2018-03-20T02:55:54.977Z,5.80
2018-03-20T02:58:23.358Z,6.03
2018-03-20T03:00:51.641Z,6.07
2018-03-20T03:03:19.917Z,6.20
2018-03-20T03:05:48.214Z,6.70
2018-03-20T03:08:16.484Z,6.93
2018-03-20T03:10:45.563Z,6.37
2018-03-20T03:13:13.939Z,7.30
2018-03-20T03:15:42.213Z,6.57
2018-03-20T03:18:10.508Z,6.40
2018-03-20T03:20:38.772Z,5.70
2018-03-20T03:23:07.172Z,6.87
2018-03-20T03:25:35.422Z,5.03
2018-03-20T03:28:04.469Z,5.87
2018-03-20T03:30:32.749Z,5.70
2018-03-20T03:33:01.009Z,7.13
2018-03-20T03:35:30.101Z,6.63
2018-03-20T03:37:58.452Z,5.80
2018-03-20T03:40:26.845Z,6.90
2018-03-20T03:42:55.286Z,6.23
2018-03-20T03:45:23.624Z,5.60
2018-03-20T03:47:51.896Z,7.97
2018-03-20T03:50:20.174Z,5.37
2018-03-20T03:52:49.195Z,5.30
2018-03-20T03:55:17.689Z,6.80
2018-03-20T03:57:46.787Z,5.57
2018-03-20T04:00:15.908Z,7.03
2018-03-20T04:02:44.190Z,5.70
2018-03-20T04:05:13.261Z,7.17
2018-03-20T04:07:42.683Z,5.97
2018-03-20T04:10:11.733Z,6.47
2018-03-20T04:12:40.010Z,6.27
2018-03-20T04:15:09.048Z,7.50
2018-03-20T04:17:37.318Z,6.13
2018-03-20T04:20:05.701Z,6.53
2018-03-20T04:22:35.469Z,6.60
2018-03-20T04:25:03.760Z,7.13
2018-03-20T04:27:32.026Z,7.00
2018-03-20T04:30:00.350Z,7.13
2018-03-20T04:32:28.701Z,6.77
2018-03-20T04:34:57.060Z,7.40
2018-03-20T04:37:25.433Z,6.83
2018-03-20T04:39:53.816Z,6.60
2018-03-20T04:42:22.079Z,6.93
2018-03-20T04:44:51.148Z,6.00
2018-03-20T04:47:19.406Z,8.10
2018-03-20T04:49:48.564Z,7.50
2018-03-20T04:52:16.833Z,8.37
2018-03-20T04:54:45.146Z,6.70
2018-03-20T04:57:13.513Z,7.23
2018-03-20T04:59:41.788Z,6.60
2018-03-20T05:02:10.841Z,6.77
2018-03-20T05:04:39.112Z,7.30
2018-03-20T05:07:07.375Z,7.83
2018-03-20T05:09:36.431Z,7.20
2018-03-20T05:12:04.700Z,7.07
2018-03-20T05:14:32.993Z,7.03
2018-03-20T05:17:01.260Z,6.13
2018-03-20T05:19:32.778Z,7.23
2018-03-20T05:22:06.445Z,7.33
2018-03-20T05:24:34.736Z,8.00
2018-03-20T05:27:03.000Z,7.47
2018-03-20T05:29:31.285Z,8.17
2018-03-20T05:31:59.580Z,7.53
2018-03-20T05:34:28.721Z,6.97
2018-03-20T05:36:57.124Z,8.20
2018-03-20T05:39:25.515Z,9.90
2018-03-20T05:41:53.887Z,8.37
2018-03-20T05:44:22.981Z,7.83
2018-03-20T05:50:13.888Z,9.07
2018-03-20T05:52:42.177Z,10.77
2018-03-20T05:55:10.480Z,9.63
2018-03-20T05:57:38.749Z,9.47
2018-03-20T06:00:07.017Z,9.33
2018-03-20T06:02:36.060Z,6.83
2018-03-20T06:05:04.363Z,7.87
2018-03-20T06:07:32.633Z,8.23
2018-03-20T06:10:00.904Z,8.73
2018-03-20T06:12:29.213Z,7.60
2018-03-20T06:14:57.628Z,9.00
2018-03-20T06:17:25.983Z,8.33
2018-03-20T06:19:54.375Z,9.57
2018-03-20T06:22:22.695Z,7.63
2018-03-20T06:24:50.979Z,7.27
2018-03-20T06:27:19.262Z,7.93
2018-03-20T06:29:47.642Z,7.50
2018-03-20T06:32:15.965Z,8.03
2018-03-20T06:34:44.292Z,6.70
2018-03-20T06:37:12.690Z,9.03
2018-03-20T06:39:40.985Z,8.70
2018-03-20T06:42:09.260Z,7.63
2018-03-20T06:44:37.535Z,6.13
2018-03-20T06:47:06.576Z,7.57
2018-03-20T06:49:34.853Z,8.63
2018-03-20T06:52:03.136Z,7.40
2018-03-20T06:54:31.405Z,7.40
2018-03-20T06:56:59.752Z,8.10
2018-03-20T06:59:28.101Z,8.27
2018-03-20T07:01:57.324Z,8.13
2018-03-20T07:04:25.683Z,8.87
2018-03-20T07:06:54.467Z,8.50
2018-03-20T07:09:22.751Z,7.80
2018-03-20T07:11:51.054Z,9.00
2018-03-20T07:14:19.317Z,7.73
2018-03-20T07:16:47.637Z,8.00
2018-03-20T07:19:15.926Z,8.23
2018-03-20T07:21:45.009Z,8.37
2018-03-20T07:24:13.293Z,8.43
2018-03-20T07:26:41.578Z,8.90
2018-03-20T07:29:09.880Z,8.80
2018-03-20T07:31:38.165Z,8.50
2018-03-20T07:34:06.440Z,9.83
2018-03-20T07:36:34.698Z,7.87
2018-03-20T07:39:03.746Z,8.30
2018-03-20T07:41:32.005Z,7.93
2018-03-20T07:44:00.360Z,8.43
2018-03-20T07:46:28.990Z,8.20
2018-03-20T07:48:57.348Z,7.73
2018-03-20T07:51:25.706Z,8.77
2018-03-20T07:53:54.601Z,7.93
2018-03-20T07:56:22.902Z,8.63
2018-03-20T07:58:51.970Z,9.87
2018-03-20T08:01:20.260Z,7.97
2018-03-20T08:03:48.537Z,8.00
2018-03-20T08:06:17.675Z,10.20
2018-03-20T08:08:45.956Z,7.30
2018-03-20T08:11:14.229Z,8.13
2018-03-20T08:13:43.281Z,8.90
2018-03-20T08:16:11.646Z,8.43
2018-03-20T08:18:39.937Z,8.67
2018-03-20T08:21:08.200Z,9.13
2018-03-20T08:23:37.244Z,8.40
2018-03-20T08:26:05.500Z,7.73
2018-03-20T08:28:34.600Z,8.67
2018-03-20T08:31:02.839Z,8.03
2018-03-20T08:33:31.161Z,9.33
2018-03-20T08:35:59.513Z,10.50
2018-03-20T08:38:27.983Z,9.77
2018-03-20T08:40:56.383Z,9.80
2018-03-20T08:43:24.772Z,9.17
2018-03-20T08:45:53.038Z,9.30
2018-03-20T08:48:21.331Z,9.50
2018-03-20T08:50:49.602Z,8.43
2018-03-20T08:53:17.876Z,8.67
2018-03-20T08:55:46.188Z,9.90
2018-03-20T08:58:15.292Z,9.40
2018-03-20T09:00:43.551Z,9.93
2018-03-20T09:03:11.837Z,9.13
2018-03-20T09:05:40.087Z,10.00
2018-03-20T09:08:08.364Z,9.93
2018-03-20T09:10:37.380Z,10.43
2018-03-20T09:13:05.648Z,9.43
2018-03-20T09:15:34.675Z,10.13
2018-03-20T09:18:02.964Z,10.47
2018-03-20T09:20:31.998Z,9.70
2018-03-20T09:23:00.302Z,9.67
2018-03-20T09:25:28.686Z,8.97
2018-03-20T09:27:57.180Z,10.47
2018-03-20T09:30:25.685Z,10.70
2018-03-20T09:32:54.450Z,9.53
2018-03-20T09:35:22.718Z,8.90
2018-03-20T09:37:51.748Z,9.27
2018-03-20T09:40:20.020Z,9.67
2018-03-20T09:42:49.127Z,7.67
2018-03-20T09:45:18.173Z,9.67
2018-03-20T09:47:46.420Z,9.33
2018-03-20T09:50:15.488Z,9.07
2018-03-20T09:52:43.892Z,9.73
2018-03-20T09:55:12.195Z,8.50
2018-03-20T09:57:40.572Z,8.30
2018-03-20T10:00:08.901Z,9.13
2018-03-20T10:02:37.148Z,9.00
2018-03-20T10:05:05.411Z,8.83
2018-03-20T10:07:33.673Z,8.10
2018-03-20T10:10:01.952Z,7.67
2018-03-20T10:12:30.257Z,7.50
2018-03-20T10:14:58.651Z,7.37
2018-03-20T10:17:27.098Z,6.60
2018-03-20T10:19:56.507Z,7.30
2018-03-20T10:22:24.906Z,7.23
2018-03-20T10:24:54.405Z,7.07
2018-03-20T10:27:22.678Z,7.47
2018-03-20T10:29:51.061Z,7.30
2018-03-20T10:32:20.079Z,7.07
2018-03-20T10:34:48.350Z,7.50
2018-03-20T10:37:16.609Z,7.73
2018-03-20T10:39:45.681Z,7.43
2018-03-20T10:42:13.979Z,7.23
2018-03-20T10:44:43.033Z,7.63
2018-03-20T10:47:11.352Z,7.50
2018-03-20T10:49:39.622Z,6.67
2018-03-20T10:52:07.853Z,6.30
2018-03-20T10:54:36.915Z,7.03
2018-03-20T10:57:05.170Z,7.17
2018-03-20T10:59:34.243Z,7.10
2018-03-20T11:02:07.983Z,6.90
2018-03-20T11:04:36.259Z,6.73
2018-03-20T11:07:04.508Z,5.33
2018-03-20T11:09:32.901Z,5.67
2018-03-20T11:12:01.188Z,5.80
2018-03-20T11:14:29.625Z,6.40
2018-03-20T11:16:58.043Z,5.50
2018-03-20T11:19:27.240Z,6.73
2018-03-20T11:21:56.399Z,6.33
2018-03-20T11:24:24.764Z,6.60
2018-03-20T11:26:53.201Z,7.23
2018-03-20T11:29:21.496Z,5.90
2018-03-20T11:31:49.847Z,5.73
2018-03-20T11:34:19.008Z,6.83
2018-03-20T11:36:47.316Z,5.57
2018-03-20T11:39:15.575Z,6.80
2018-03-20T11:41:43.924Z,7.30
2018-03-20T11:44:12.192Z,5.97
2018-03-20T11:46:41.258Z,6.40
2018-03-20T11:49:09.488Z,7.27
2018-03-20T11:51:38.529Z,6.00
2018-03-20T11:54:06.780Z,6.20
2018-03-20T11:56:35.054Z,5.93
2018-03-20T11:59:03.317Z,6.60
2018-03-20T12:01:31.576Z,5.90
2018-03-20T12:03:59.873Z,5.23
2018-03-20T12:06:28.231Z,5.47
2018-03-20T12:12:04.976Z,4.73
2018-03-20T12:14:33.249Z,5.40
2018-03-20T12:17:02.336Z,4.63
2018-03-20T12:19:30.607Z,4.47
2018-03-20T12:21:58.883Z,4.73
2018-03-20T12:24:27.198Z,3.63
2018-03-20T12:26:55.538Z,4.17
2018-03-20T12:29:23.807Z,4.20
2018-03-20T12:31:52.142Z,4.67
2018-03-20T12:34:21.139Z,5.13
2018-03-20T12:36:49.460Z,5.17
2018-03-20T12:39:17.708Z,4.23
2018-03-20T12:41:46.017Z,4.63
2018-03-20T12:44:14.368Z,4.77
2018-03-20T12:46:44.036Z,4.43
2018-03-20T12:49:12.306Z,5.23
2018-03-20T12:51:40.589Z,6.03
2018-03-20T12:54:08.842Z,5.43
2018-03-20T12:56:37.937Z,4.73
2018-03-20T12:59:06.187Z,5.83
2018-03-20T13:01:35.232Z,5.70
2018-03-20T13:04:03.489Z,5.77
2018-03-20T13:06:31.757Z,5.43
2018-03-20T13:09:00.013Z,7.40
2018-03-20T13:11:29.070Z,7.53
2018-03-20T13:13:58.123Z,6.07
2018-03-20T13:16:26.421Z,7.50
2018-03-20T13:18:55.477Z,6.60
2018-03-20T13:21:23.765Z,6.47
2018-03-20T13:23:52.833Z,5.83
2018-03-20T13:26:21.897Z,6.77
2018-03-20T13:28:50.153Z,6.87
2018-03-20T13:31:18.432Z,6.23
2018-03-20T13:33:46.728Z,5.73
2018-03-20T13:36:15.081Z,6.70
2018-03-20T13:38:43.367Z,5.60
2018-03-20T13:41:11.630Z,5.93
2018-03-20T13:43:39.876Z,6.83
2018-03-20T13:46:08.154Z,7.30
2018-03-20T13:48:37.159Z,7.13
2018-03-20T13:51:06.183Z,7.23
2018-03-20T13:53:34.434Z,6.80
2018-03-20T13:56:02.822Z,6.43
2018-03-20T13:58:31.084Z,7.30
2018-03-20T14:00:59.418Z,6.90
2018-03-20T14:03:27.715Z,6.73
2018-03-20T14:05:56.032Z,6.37
2018-03-20T14:08:24.389Z,6.13
2018-03-20T14:10:53.826Z,6.90
2018-03-20T14:13:22.145Z,5.67
2018-03-20T14:15:50.407Z,5.67
2018-03-20T14:18:18.680Z,6.27
2018-03-20T14:20:47.711Z,5.37
2018-03-20T14:23:15.985Z,5.67
2018-03-20T14:25:45.043Z,6.60
2018-03-20T14:28:13.295Z,6.47
2018-03-20T14:30:41.558Z,6.53
2018-03-20T14:33:10.585Z,6.70
2018-03-20T14:35:38.842Z,5.93
2018-03-20T14:38:07.105Z,5.70
2018-03-20T14:40:35.365Z,5.97
2018-03-20T14:43:04.453Z,5.53
2018-03-20T14:45:33.476Z,5.67
2018-03-20T14:48:01.752Z,6.77
2018-03-20T14:50:30.096Z,5.80
2018-03-20T14:52:58.378Z,7.60
2018-03-20T14:55:26.735Z,7.43
2018-03-20T14:57:55.070Z,7.73
2018-03-20T15:00:24.334Z,7.40
2018-03-20T15:02:53.368Z,7.90
2018-03-20T15:05:21.632Z,8.67
2018-03-20T15:07:49.907Z,8.17
2018-03-20T15:10:18.174Z,8.13
2018-03-20T15:12:47.240Z,8.77
2018-03-20T15:15:15.495Z,8.57
2018-03-20T15:17:43.835Z,7.77
2018-03-20T15:20:12.153Z,7.87
2018-03-20T15:22:41.184Z,8.00
2018-03-20T15:25:09.657Z,8.47
2018-03-20T15:27:37.949Z,8.13
2018-03-20T15:30:07.712Z,7.97
2018-03-20T15:32:35.992Z,10.03
2018-03-20T15:35:04.241Z,8.60
2018-03-20T15:37:32.520Z,7.77
2018-03-20T15:40:00.788Z,6.67
2018-03-20T15:42:29.168Z,8.70
2018-03-20T15:44:57.468Z,9.43
2018-03-20T15:47:25.952Z,9.23
2018-03-20T15:49:55.417Z,10.30
2018-03-20T15:52:23.962Z,8.40
2018-03-20T15:54:52.248Z,9.07
2018-03-20T15:57:20.512Z,8.53
2018-03-20T15:59:48.773Z,9.13
2018-03-20T16:02:17.047Z,8.20
2018-03-20T16:04:45.337Z,9.73
2018-03-20T16:07:13.593Z,7.67
2018-03-20T16:09:41.876Z,8.80
2018-03-20T16:12:10.149Z,8.80
2018-03-20T16:14:38.451Z,8.90
2018-03-20T16:17:06.725Z,9.77
2018-03-20T16:19:35.018Z,7.90
2018-03-20T16:22:03.325Z,9.03
2018-03-20T16:24:32.442Z,8.77
2018-03-20T16:27:00.775Z,8.90
2018-03-20T16:29:29.912Z,8.77
2018-03-20T16:31:58.990Z,8.13
2018-03-20T16:34:27.353Z,8.37
2018-03-20T16:36:55.724Z,9.03
2018-03-20T16:39:24.030Z,7.37
2018-03-20T16:41:52.387Z,9.23
2018-03-20T16:44:20.658Z,8.57
2018-03-20T16:46:49.685Z,9.77
2018-03-20T16:49:17.967Z,8.70
2018-03-20T16:51:46.237Z,9.57
2018-03-20T16:54:15.297Z,11.23
2018-03-20T16:56:43.594Z,9.87
2018-03-20T16:59:11.860Z,10.20
2018-03-20T17:01:40.157Z,9.67
2018-03-20T17:04:08.442Z,8.33
2018-03-20T17:06:36.764Z,10.83
2018-03-20T17:09:05.072Z,11.53
2018-03-20T17:11:33.372Z,12.97
2018-03-20T17:14:01.642Z,13.73
2018-03-20T17:16:29.984Z,11.63
2018-03-20T17:18:58.363Z,9.87
2018-03-20T17:21:26.717Z,9.20
2018-03-20T17:23:55.116Z,9.83
2018-03-20T17:26:23.382Z,10.13
2018-03-20T17:28:52.444Z,9.53
2018-03-20T17:31:20.705Z,8.63
2018-03-20T17:33:49.847Z,9.00
2018-03-20T17:36:18.125Z,10.73
2018-03-20T17:38:47.165Z,9.43
2018-03-20T17:41:15.463Z,9.73
2018-03-20T17:43:43.817Z,9.30
2018-03-20T17:46:12.113Z,8.93
2018-03-20T17:48:41.170Z,9.40
2018-03-20T17:51:09.432Z,12.53
2018-03-20T17:53:37.712Z,9.17
2018-03-20T17:56:05.980Z,9.83
2018-03-20T17:58:34.256Z,9.17
2018-03-20T18:01:03.293Z,10.23
2018-03-20T18:03:31.600Z,9.63
2018-03-20T18:06:00.040Z,10.47
2018-03-20T18:08:28.297Z,10.23
2018-03-20T18:10:56.677Z,12.00
2018-03-20T18:13:25.966Z,10.53
2018-03-20T18:15:55.160Z,11.23
2018-03-20T18:18:23.485Z,12.33
2018-03-20T18:20:51.782Z,11.23
2018-03-20T18:23:20.039Z,11.93
2018-03-20T18:25:48.333Z,11.93
2018-03-20T18:28:16.711Z,12.60
2018-03-20T18:30:45.039Z,11.40
2018-03-20T18:33:13.315Z,12.90
2018-03-20T18:35:41.685Z,12.83
2018-03-20T18:38:10.721Z,14.80
2018-03-20T18:40:39.007Z,13.10
2018-03-20T18:43:07.276Z,12.87
2018-03-20T18:45:35.551Z,12.87
2018-03-20T18:48:03.876Z,14.93
2018-03-20T18:50:32.154Z,15.20
2018-03-20T18:53:00.462Z,14.53
2018-03-20T18:55:28.813Z,14.13
2018-03-20T18:57:57.089Z,13.43
2018-03-20T19:00:26.338Z,14.87
2018-03-20T19:02:54.762Z,15.00
2018-03-20T19:05:23.049Z,13.90
2018-03-20T19:07:51.336Z,12.60
2018-03-20T19:10:19.624Z,12.20
2018-03-20T19:12:47.880Z,14.50
2018-03-20T19:15:16.173Z,12.97
2018-03-20T19:17:44.499Z,14.27
2018-03-20T19:20:12.813Z,14.43
2018-03-20T19:22:41.863Z,13.83
2018-03-20T19:25:10.137Z,15.23
2018-03-20T19:27:38.412Z,15.27
2018-03-20T19:30:07.465Z,14.40
2018-03-20T19:32:35.824Z,14.83
2018-03-20T19:35:04.093Z,15.80
2018-03-20T19:37:33.125Z,16.30
2018-03-20T19:40:01.398Z,17.23
2018-03-20T19:42:30.476Z,15.80
2018-03-20T19:44:58.820Z,15.53
2018-03-20T19:47:27.137Z,15.70
2018-03-20T19:49:56.446Z,14.20
2018-03-20T19:52:25.124Z,15.47
2018-03-20T19:54:53.512Z,14.63
2018-03-20T19:57:21.895Z,18.80
2018-03-20T19:59:50.159Z,15.57
2018-03-20T20:02:19.217Z,15.83
2018-03-20T20:04:47.484Z,17.13
2018-03-20T20:07:15.878Z,15.43
2018-03-20T20:09:44.172Z,14.73
2018-03-20T20:12:12.446Z,13.90
2018-03-20T20:14:40.771Z,15.43
2018-03-20T20:17:09.051Z,15.23
2018-03-20T20:19:37.299Z,14.90
2018-03-20T20:22:06.336Z,14.23
2018-03-20T20:24:34.600Z,15.00
2018-03-20T20:27:03.639Z,13.23
2018-03-20T20:29:31.922Z,15.27
2018-03-20T20:32:00.240Z,13.77
2018-03-20T20:34:28.582Z,13.23
2018-03-20T20:36:57.601Z,13.97
2018-03-20T20:39:25.902Z,14.73
2018-03-20T20:41:54.246Z,14.33
2018-03-20T20:44:22.509Z,13.03
2018-03-20T20:46:52.296Z,13.70
2018-03-20T20:49:20.552Z,13.90
2018-03-20T20:51:49.596Z,13.87
2018-03-20T20:54:17.863Z,15.20
2018-03-20T20:56:46.159Z,14.97
2018-03-20T20:59:14.444Z,14.93
2018-03-20T21:01:43.497Z,14.80
2018-03-20T21:04:12.544Z,12.80
2018-03-20T21:06:41.645Z,14.33
2018-03-20T21:09:09.941Z,13.57
2018-03-20T21:11:38.987Z,14.43
2018-03-20T21:14:07.245Z,13.87
2018-03-20T21:16:36.302Z,12.57
2018-03-20T21:19:04.658Z,13.00
2018-03-20T21:21:32.927Z,12.53
2018-03-20T21:24:01.972Z,12.30
2018-03-20T21:26:30.268Z,13.37
2018-03-20T21:28:58.592Z,12.73
2018-03-20T21:31:26.924Z,12.67
2018-03-20T21:33:55.264Z,12.90
2018-03-20T21:36:23.596Z,12.47
2018-03-20T21:38:53.348Z,12.03
2018-03-20T21:41:21.650Z,13.33
2018-03-20T21:43:50.016Z,13.10
2018-03-20T21:46:18.296Z,12.33
2018-03-20T21:48:46.569Z,12.80
2018-03-20T21:51:15.632Z,13.97
2018-03-20T21:53:43.985Z,9.73
2018-03-20T21:56:12.261Z,11.83
2018-03-20T21:58:41.318Z,11.47
2018-03-20T22:01:09.639Z,10.70
2018-03-20T22:03:37.921Z,11.57
2018-03-20T22:06:06.172Z,10.80
2018-03-20T22:08:34.482Z,10.70
2018-03-20T22:11:02.760Z,10.70
2018-03-20T22:13:31.117Z,10.80
2018-03-20T22:15:59.440Z,10.43
2018-03-20T22:18:28.111Z,11.13
2018-03-20T22:20:57.333Z,12.77
2018-03-20T22:23:25.760Z,11.63
2018-03-20T22:25:54.174Z,11.50
2018-03-20T22:28:22.602Z,10.17
2018-03-20T22:30:50.868Z,11.83
2018-03-20T22:33:19.925Z,10.83
2018-03-20T22:35:48.288Z,9.00
2018-03-20T22:38:17.377Z,10.03
2018-03-20T22:40:46.452Z,11.07
2018-03-20T22:43:14.798Z,8.47
2018-03-20T22:45:43.064Z,8.23
2018-03-20T22:48:12.193Z,7.93
2018-03-20T22:50:40.446Z,9.00
2018-03-20T22:53:09.476Z,8.60
2018-03-20T22:55:37.731Z,8.33
2018-03-20T22:58:05.994Z,7.13
2018-03-20T23:00:34.257Z,7.50
2018-03-20T23:03:02.548Z,7.03
2018-03-20T23:05:30.871Z,7.53
2018-03-20T23:07:59.291Z,7.43
2018-03-20T23:10:28.761Z,7.30
2018-03-20T23:12:57.977Z,7.13
2018-03-20T23:15:26.323Z,7.67
2018-03-20T23:17:54.746Z,7.77
2018-03-20T23:20:23.035Z,6.97
2018-03-20T23:22:51.333Z,8.23
2018-03-20T23:25:19.603Z,6.57
2018-03-20T23:27:47.994Z,8.00
2018-03-20T23:30:17.427Z,7.60
2018-03-20T23:32:45.700Z,7.70
2018-03-20T23:35:13.970Z,7.90
2018-03-20T23:37:43.013Z,7.03
2018-03-20T23:40:11.296Z,7.37
2018-03-20T23:42:39.563Z,8.27
2018-03-20T23:45:09.216Z,8.90
2018-03-20T23:47:37.497Z,7.27
2018-03-20T23:50:05.804Z,7.13
2018-03-20T23:52:34.076Z,6.17
2018-03-20T23:55:02.340Z,8.77
2018-03-20T23:57:32.113Z,7.00
